createdAt,value
2019-04-21T00:00:31.934Z,0.00
2019-04-21T00:01:35.628Z,0.00
2019-04-21T00:02:36.046Z,0.00
2019-04-21T00:03:38.416Z,0.00
2019-04-21T00:04:42.980Z,0.00
2019-04-21T00:05:55.707Z,0.00
2019-04-21T00:06:48.424Z,0.00
2019-04-21T00:07:51.227Z,0.00
2019-04-21T00:08:48.865Z,0.00
2019-04-21T00:09:52.366Z,0.00
2019-04-21T00:11:01.431Z,0.00
2019-04-21T00:11:57.264Z,0.00
2019-04-21T00:12:50.558Z,0.00
2019-04-21T00:13:51.428Z,0.00
2019-04-21T00:14:43.916Z,0.00
2019-04-21T00:15:38.684Z,0.00
2019-04-21T00:16:43.210Z,0.00
2019-04-21T00:17:32.112Z,0.00
2019-04-21T00:18:40.756Z,0.00
2019-04-21T00:19:33.981Z,0.00
2019-04-21T00:20:39.648Z,0.00
2019-04-21T00:21:39.448Z,0.00
2019-04-21T00:22:46.700Z,0.00
2019-04-21T00:23:49.422Z,0.00
2019-04-21T00:24:44.442Z,0.00
2019-04-21T00:25:46.037Z,0.00
2019-04-21T00:26:49.399Z,0.00
2019-04-21T00:27:47.812Z,0.00
2019-04-21T00:28:59.420Z,0.00
2019-04-21T00:29:49.762Z,0.00
2019-04-21T00:30:50.896Z,0.00
2019-04-21T00:31:45.827Z,0.00
2019-04-21T00:32:46.033Z,0.00
2019-04-21T00:33:36.797Z,0.00
2019-04-21T00:34:32.152Z,0.00
2019-04-21T00:35:39.551Z,0.00
2019-04-21T00:36:42.750Z,0.00
2019-04-21T00:37:54.642Z,0.00
2019-04-21T00:38:59.078Z,0.00
2019-04-21T00:40:53.820Z,0.00
2019-04-21T00:41:53.676Z,0.00
2019-04-21T00:42:48.723Z,0.00
2019-04-21T00:43:44.793Z,0.00
2019-04-21T00:44:44.319Z,0.00
2019-04-21T00:45:41.774Z,0.00
2019-04-21T00:46:50.294Z,0.00
2019-04-21T00:47:54.608Z,0.00
2019-04-21T00:48:54.082Z,0.00
2019-04-21T00:49:52.311Z,0.00
2019-04-21T00:51:11.037Z,0.00
2019-04-21T00:52:04.237Z,0.00
2019-04-21T00:53:05.513Z,0.00
2019-04-21T00:53:59.665Z,0.00
2019-04-21T00:54:58.601Z,0.00
2019-04-21T00:55:59.868Z,0.00
2019-04-21T00:56:59.158Z,0.00
2019-04-21T00:58:00.127Z,0.00
2019-04-21T00:58:53.612Z,0.00
2019-04-21T00:59:51.058Z,0.00
2019-04-21T01:00:52.686Z,0.00
2019-04-21T01:01:52.339Z,0.00
2019-04-21T01:02:56.196Z,0.00
2019-04-21T01:03:57.903Z,0.00
2019-04-21T01:05:00.217Z,0.00
2019-04-21T01:05:52.756Z,0.00
2019-04-21T01:06:55.645Z,0.00
2019-04-21T01:07:52.473Z,0.00
2019-04-21T01:08:55.733Z,0.00
2019-04-21T01:09:45.313Z,0.00
2019-04-21T01:10:43.574Z,0.00
2019-04-21T01:12:57.709Z,0.00
2019-04-21T01:14:00.979Z,0.00
2019-04-21T01:14:55.351Z,0.00
2019-04-21T01:15:52.825Z,0.00
2019-04-21T01:16:54.639Z,0.00
2019-04-21T01:17:48.397Z,0.00
2019-04-21T01:18:51.915Z,0.00
2019-04-21T01:19:43.886Z,0.00
2019-04-21T01:20:30.899Z,0.00
2019-04-21T01:21:29.901Z,0.00
2019-04-21T01:22:29.892Z,0.00
2019-04-21T01:23:29.865Z,0.00
2019-04-21T01:24:34.507Z,0.00
2019-04-21T01:25:39.884Z,0.00
2019-04-21T01:26:41.642Z,0.00
2019-04-21T01:27:50.829Z,0.00
2019-04-21T01:28:54.419Z,0.00
2019-04-21T01:29:58.309Z,0.00
2019-04-21T01:30:54.829Z,0.00
2019-04-21T01:31:48.274Z,0.00
2019-04-21T01:32:53.267Z,0.00
2019-04-21T01:33:51.541Z,0.00
2019-04-21T01:34:56.078Z,0.00
2019-04-21T01:35:48.240Z,0.00
2019-04-21T01:36:48.987Z,0.00
2019-04-21T01:38:08.134Z,0.00
2019-04-21T01:38:58.339Z,0.00
2019-04-21T01:40:14.041Z,0.00
2019-04-21T01:40:52.718Z,0.00
2019-04-21T01:41:51.107Z,0.00
2019-04-21T01:42:51.161Z,0.00
2019-04-21T01:43:53.492Z,0.00
2019-04-21T01:44:53.220Z,0.00
2019-04-21T01:45:50.532Z,0.00
2019-04-21T01:46:45.833Z,0.00
2019-04-21T01:47:46.241Z,0.00
2019-04-21T01:48:42.825Z,0.00
2019-04-21T01:49:43.185Z,0.00
2019-04-21T01:50:47.017Z,0.00
2019-04-21T01:52:05.640Z,0.00
2019-04-21T01:53:15.468Z,0.00
2019-04-21T01:53:48.596Z,0.00
2019-04-21T01:54:48.137Z,0.00
2019-04-21T01:55:52.837Z,0.00
2019-04-21T01:56:51.271Z,0.00
2019-04-21T01:57:51.226Z,0.00
2019-04-21T01:58:42.940Z,0.00
2019-04-21T01:59:43.474Z,0.00
2019-04-21T02:00:45.605Z,0.00
2019-04-21T02:01:54.120Z,0.00
2019-04-21T02:02:54.669Z,0.00
2019-04-21T02:03:58.472Z,0.00
2019-04-21T02:04:55.786Z,0.00
2019-04-21T02:06:00.014Z,0.00
2019-04-21T02:06:50.540Z,0.00
2019-04-21T02:07:49.129Z,0.00
2019-04-21T02:08:49.056Z,0.00
2019-04-21T02:09:55.431Z,0.00
2019-04-21T02:10:54.663Z,0.00
2019-04-21T02:11:56.490Z,0.00
2019-04-21T02:12:53.909Z,0.00
2019-04-21T02:13:57.286Z,0.00
2019-04-21T02:14:59.944Z,0.00
2019-04-21T02:15:59.386Z,0.00
2019-04-21T02:16:54.119Z,0.00
2019-04-21T02:17:53.615Z,0.00
2019-04-21T02:18:52.612Z,0.00
2019-04-21T02:19:45.807Z,0.00
2019-04-21T02:20:42.265Z,0.00
2019-04-21T02:21:46.284Z,0.00
2019-04-21T02:23:06.138Z,0.00
2019-04-21T02:23:57.420Z,0.00
2019-04-21T02:24:57.771Z,0.00
2019-04-21T02:25:52.703Z,0.00
2019-04-21T02:26:57.321Z,0.00
2019-04-21T02:27:54.565Z,0.00
2019-04-21T02:28:56.552Z,0.00
2019-04-21T02:29:55.462Z,0.00
2019-04-21T02:31:07.981Z,0.00
2019-04-21T02:32:01.960Z,0.00
2019-04-21T02:34:00.649Z,0.00
2019-04-21T02:35:24.618Z,0.00
2019-04-21T02:36:15.616Z,0.00
2019-04-21T02:37:19.515Z,0.00
2019-04-21T02:39:06.172Z,0.00
2019-04-21T02:40:05.061Z,0.00
2019-04-21T02:43:07.118Z,0.00
2019-04-21T02:45:00.409Z,0.00
2019-04-21T02:46:10.322Z,0.00
2019-04-21T02:47:24.110Z,0.00
2019-04-21T02:48:04.432Z,0.00
2019-04-21T02:49:07.856Z,0.00
2019-04-21T02:50:52.833Z,0.00
2019-04-21T02:52:03.385Z,0.00
2019-04-21T02:53:03.848Z,0.00
2019-04-21T02:54:31.830Z,0.00
2019-04-21T02:55:03.865Z,0.00
2019-04-21T02:56:00.243Z,0.00
2019-04-21T02:57:01.567Z,0.00
2019-04-21T02:58:16.336Z,0.00
2019-04-21T02:59:02.303Z,0.00
2019-04-21T03:01:03.285Z,0.00
2019-04-21T03:02:17.129Z,0.00
2019-04-21T03:03:16.124Z,0.00
2019-04-21T03:04:00.619Z,0.00
2019-04-21T03:05:05.264Z,0.00
2019-04-21T03:05:58.780Z,0.00
2019-04-21T03:07:09.667Z,0.00
2019-04-21T03:08:15.350Z,0.00
2019-04-21T03:08:59.040Z,0.00
2019-04-21T03:09:57.894Z,0.00
2019-04-21T03:12:05.422Z,0.00
2019-04-21T03:13:05.987Z,0.00
2019-04-21T03:14:05.538Z,0.00
2019-04-21T03:16:06.956Z,0.00
2019-04-21T03:16:55.507Z,0.00
2019-04-21T03:18:22.607Z,0.00
2019-04-21T03:19:06.381Z,0.00
2019-04-21T03:20:07.200Z,0.00
2019-04-21T03:21:13.347Z,4.00
2019-04-21T03:22:05.244Z,4.00
2019-04-21T03:23:16.615Z,4.00
2019-04-21T03:23:57.541Z,0.00
2019-04-21T03:25:22.778Z,4.00
2019-04-21T03:26:10.301Z,4.00
2019-04-21T03:27:09.686Z,4.00
2019-04-21T03:28:13.586Z,4.00
2019-04-21T03:29:09.034Z,4.00
2019-04-21T03:29:59.263Z,8.00
2019-04-21T03:31:19.629Z,8.00
2019-04-21T03:33:41.030Z,12.00
2019-04-21T03:35:26.215Z,12.00
2019-04-21T03:38:53.206Z,28.00
2019-04-21T03:39:59.345Z,32.00
2019-04-21T03:41:01.404Z,40.00
2019-04-21T03:42:08.802Z,44.00
2019-04-21T03:43:04.468Z,52.00
2019-04-21T03:43:59.325Z,56.00
2019-04-21T03:46:20.395Z,76.00
2019-04-21T03:47:17.149Z,88.00
2019-04-21T03:48:01.221Z,96.00
2019-04-21T03:49:04.652Z,112.00
2019-04-21T03:50:06.733Z,128.00
2019-04-21T03:50:56.291Z,140.00
2019-04-21T03:52:09.074Z,160.00
2019-04-21T03:54:04.923Z,192.00
2019-04-21T03:55:24.291Z,212.00
2019-04-21T03:56:00.725Z,236.00
2019-04-21T03:57:10.551Z,256.00
2019-04-21T04:00:11.030Z,336.00
2019-04-21T04:02:05.935Z,392.00
2019-04-21T04:04:09.376Z,456.00
2019-04-21T04:05:03.667Z,488.00
2019-04-21T04:08:12.884Z,596.00
2019-04-21T04:10:02.933Z,668.00
2019-04-21T04:13:02.762Z,784.00
2019-04-21T04:14:03.929Z,828.00
2019-04-21T04:17:08.785Z,952.00
2019-04-21T04:17:54.356Z,996.00
2019-04-21T04:19:00.516Z,1036.00
2019-04-21T04:20:03.944Z,1080.00
2019-04-21T04:21:05.803Z,1120.00
2019-04-21T04:23:03.321Z,1208.00
2019-04-21T04:24:09.155Z,1248.00
2019-04-21T04:25:59.030Z,1336.00
2019-04-21T04:28:08.245Z,1420.00
2019-04-21T04:29:03.430Z,1464.00
2019-04-21T04:30:01.093Z,1504.00
2019-04-21T04:32:16.970Z,1588.00
2019-04-21T04:32:57.226Z,1632.00
2019-04-21T04:34:04.200Z,1676.00
2019-04-21T04:35:05.597Z,1716.00
2019-04-21T04:36:15.299Z,1756.00
2019-04-21T04:37:12.619Z,1796.00
2019-04-21T04:37:57.312Z,1836.00
2019-04-21T04:39:18.004Z,1876.00
2019-04-21T04:40:13.424Z,1912.00
2019-04-21T04:41:09.696Z,1952.00
2019-04-21T04:42:12.771Z,1992.00
2019-04-21T04:43:06.398Z,2032.00
2019-04-21T04:44:04.038Z,2068.00
2019-04-21T04:47:05.865Z,2184.00
2019-04-21T04:47:59.289Z,2220.00
2019-04-21T04:49:01.696Z,2256.00
2019-04-21T04:49:55.035Z,2296.00
2019-04-21T04:51:03.889Z,2328.00
2019-04-21T04:52:51.306Z,2400.00
2019-04-21T04:56:20.530Z,2504.00
2019-04-21T04:57:08.175Z,2536.00
2019-04-21T04:58:04.880Z,2572.00
2019-04-21T04:59:25.443Z,2604.00
2019-04-21T05:00:19.686Z,2636.00
2019-04-21T05:01:08.148Z,2668.00
2019-04-21T05:02:46.440Z,2700.00
2019-04-21T05:02:58.783Z,2732.00
2019-04-21T05:05:09.166Z,2792.00
2019-04-21T05:06:11.929Z,2832.00
2019-04-21T05:06:56.341Z,2860.00
2019-04-21T05:08:10.132Z,2896.00
2019-04-21T05:09:10.924Z,2924.00
2019-04-21T05:11:08.546Z,2984.00
2019-04-21T05:11:55.390Z,3016.00
2019-04-21T05:12:56.729Z,3052.00
2019-04-21T05:14:06.289Z,3072.00
2019-04-21T05:15:04.838Z,3104.00
2019-04-21T05:16:06.210Z,3136.00
2019-04-21T05:17:57.638Z,3196.00
2019-04-21T05:19:10.549Z,3228.00
2019-04-21T05:20:10.318Z,3260.00
2019-04-21T05:21:10.552Z,3292.00
2019-04-21T05:21:55.360Z,3324.00
2019-04-21T05:22:56.287Z,3356.00
2019-04-21T05:23:47.152Z,3388.00
2019-04-21T05:25:44.537Z,3456.00
2019-04-21T05:26:43.360Z,3488.00
2019-04-21T05:27:42.828Z,3524.00
2019-04-21T05:28:40.888Z,3568.00
2019-04-21T05:29:53.916Z,3660.00
2019-04-21T05:30:58.506Z,3772.00
2019-04-21T05:31:55.506Z,3880.00
2019-04-21T05:32:58.423Z,3984.00
2019-04-21T05:33:57.390Z,4096.00
2019-04-21T05:34:50.785Z,4208.00
2019-04-21T05:35:49.306Z,4312.00
2019-04-21T05:36:52.376Z,4428.00
2019-04-21T05:37:50.395Z,4540.00
2019-04-21T05:38:47.650Z,4660.00
2019-04-21T05:39:46.826Z,4776.00
2019-04-21T05:40:38.939Z,4892.00
2019-04-21T05:41:38.615Z,5004.00
2019-04-21T05:42:45.549Z,5128.00
2019-04-21T05:43:48.697Z,5244.00
2019-04-21T05:44:54.543Z,5360.00
2019-04-21T05:45:51.854Z,5484.00
2019-04-21T05:47:00.735Z,5612.00
2019-04-21T05:47:56.296Z,5748.00
2019-04-21T05:48:45.729Z,5860.00
2019-04-21T05:49:45.629Z,5988.00
2019-04-21T05:50:46.637Z,6112.00
2019-04-21T05:51:46.545Z,6244.00
2019-04-21T05:52:44.975Z,6368.00
2019-04-21T05:53:53.111Z,6496.00
2019-04-21T05:55:49.181Z,6764.00
2019-04-21T05:56:49.825Z,6904.00
2019-04-21T05:57:48.112Z,7036.00
2019-04-21T05:58:49.752Z,7168.00
2019-04-21T05:59:51.507Z,7312.00
2019-04-21T06:01:06.325Z,7456.00
2019-04-21T06:02:03.017Z,7584.00
2019-04-21T06:02:53.385Z,7724.00
2019-04-21T06:05:05.579Z,8008.00
2019-04-21T06:06:58.802Z,8284.00
2019-04-21T06:07:46.183Z,8420.00
2019-04-21T06:08:49.999Z,8568.00
2019-04-21T06:10:52.971Z,8860.00
2019-04-21T06:11:51.245Z,8992.00
2019-04-21T06:12:52.179Z,9136.00
2019-04-21T06:13:56.809Z,9280.00
2019-04-21T06:14:54.373Z,9432.00
2019-04-21T06:15:57.586Z,9564.00
2019-04-21T06:16:55.533Z,9712.00
2019-04-21T06:17:54.883Z,9868.00
2019-04-21T06:18:53.143Z,10028.00
2019-04-21T06:20:19.131Z,10180.00
2019-04-21T06:20:58.023Z,10296.00
2019-04-21T06:21:44.859Z,10408.00
2019-04-21T06:22:54.825Z,10524.00
2019-04-21T06:23:47.950Z,10640.00
2019-04-21T06:25:15.164Z,10732.00
2019-04-21T06:26:08.506Z,10828.00
2019-04-21T06:27:00.123Z,10948.00
2019-04-21T06:27:51.085Z,11056.00
2019-04-21T06:29:03.945Z,11144.00
2019-04-21T06:29:50.254Z,11244.00
2019-04-21T06:30:59.319Z,11324.00
2019-04-21T06:32:17.779Z,11416.00
2019-04-21T06:32:49.167Z,11512.00
2019-04-21T06:33:50.708Z,11628.00
2019-04-21T06:35:07.306Z,11744.00
2019-04-21T06:36:11.472Z,11876.00
2019-04-21T06:37:49.179Z,12148.00
2019-04-21T06:39:01.146Z,12260.00
2019-04-21T06:40:06.450Z,12396.00
2019-04-21T06:40:48.687Z,12568.00
2019-04-21T06:42:07.731Z,12776.00
2019-04-21T06:43:08.295Z,12984.00
2019-04-21T06:43:56.696Z,13216.00
2019-04-21T06:45:03.101Z,13488.00
2019-04-21T06:46:18.211Z,13820.00
2019-04-21T06:46:47.032Z,14212.00
2019-04-21T06:47:51.185Z,14772.00
2019-04-21T06:48:55.692Z,18944.00
2019-04-21T06:49:50.155Z,34560.00
2019-04-21T06:50:52.999Z,50656.00
2019-04-21T06:51:48.358Z,55968.00
2019-04-21T06:53:59.265Z,58048.00
2019-04-21T06:55:52.021Z,56256.00
2019-04-21T06:57:03.303Z,58336.00
2019-04-21T06:57:54.334Z,58528.00
2019-04-21T06:58:52.689Z,57984.00
2019-04-21T06:59:43.647Z,58688.00
2019-04-21T07:00:47.730Z,56928.00
2019-04-21T07:01:52.736Z,56256.00
2019-04-21T07:02:51.950Z,56800.00
2019-04-21T07:04:02.376Z,55808.00
2019-04-21T07:04:50.173Z,56672.00
2019-04-21T07:05:57.281Z,59872.00
2019-04-21T07:07:54.679Z,63008.00
2019-04-21T07:09:02.567Z,62688.00
2019-04-21T07:09:53.082Z,63904.00
2019-04-21T07:10:52.040Z,64576.00
2019-04-21T07:11:52.841Z,64608.00
2019-04-21T07:12:48.277Z,64096.00
2019-04-21T07:13:44.030Z,65344.00
2019-04-21T07:14:50.040Z,67712.00
2019-04-21T07:15:53.021Z,68096.00
2019-04-21T07:16:52.564Z,66304.00
2019-04-21T07:17:54.722Z,66656.00
2019-04-21T07:18:51.374Z,67584.00
2019-04-21T07:20:49.480Z,66304.00
2019-04-21T07:22:03.313Z,63136.00
2019-04-21T07:22:48.086Z,63968.00
2019-04-21T07:23:52.296Z,66752.00
2019-04-21T07:24:54.053Z,72256.00
2019-04-21T07:25:53.431Z,73760.00
2019-04-21T07:26:51.542Z,74688.00
2019-04-21T07:28:56.277Z,75872.00
2019-04-21T07:29:55.093Z,76160.00
2019-04-21T07:30:57.672Z,75360.00
2019-04-21T07:31:54.392Z,75296.00
2019-04-21T07:32:55.291Z,77184.00
2019-04-21T07:34:51.797Z,79456.00
2019-04-21T07:35:54.003Z,79392.00
2019-04-21T07:37:07.747Z,79904.00
2019-04-21T07:37:48.712Z,82144.00
2019-04-21T07:38:45.884Z,83424.00
2019-04-21T07:39:43.949Z,83264.00
2019-04-21T07:40:41.703Z,75872.00
2019-04-21T07:41:46.926Z,73504.00
2019-04-21T07:42:38.007Z,72128.00
2019-04-21T07:43:44.103Z,73632.00
2019-04-21T07:44:42.287Z,74304.00
2019-04-21T07:45:40.792Z,76736.00
2019-04-21T07:46:42.705Z,80640.00
2019-04-21T07:47:46.077Z,83808.00
2019-04-21T07:48:58.761Z,83232.00
2019-04-21T07:49:53.757Z,80032.00
2019-04-21T07:50:48.794Z,80320.00
2019-04-21T07:51:53.450Z,79744.00
2019-04-21T07:52:55.389Z,80288.00
2019-04-21T07:53:50.988Z,78432.00
2019-04-21T07:54:56.819Z,80416.00
2019-04-21T07:56:34.580Z,81024.00
2019-04-21T07:57:44.184Z,78400.00
2019-04-21T07:58:56.359Z,80768.00
2019-04-21T08:00:01.221Z,81536.00
2019-04-21T08:00:53.019Z,80800.00
2019-04-21T08:01:50.875Z,74912.00
2019-04-21T08:02:49.561Z,69824.00
2019-04-21T08:03:45.809Z,69632.00
2019-04-21T08:05:07.513Z,78368.00
2019-04-21T08:05:45.768Z,85760.00
2019-04-21T08:06:48.872Z,90272.00
2019-04-21T08:07:54.209Z,89792.00
2019-04-21T08:08:46.650Z,86272.00
2019-04-21T08:09:47.263Z,81440.00
2019-04-21T08:11:45.754Z,86592.00
2019-04-21T08:12:43.200Z,92480.00
2019-04-21T08:13:48.556Z,93984.00
2019-04-21T08:14:55.616Z,93408.00
2019-04-21T08:15:49.427Z,90752.00
2019-04-21T08:16:52.450Z,90912.00
2019-04-21T08:17:49.147Z,91424.00
2019-04-21T08:18:45.468Z,90848.00
2019-04-21T08:19:43.106Z,89568.00
2019-04-21T08:20:45.933Z,85184.00
2019-04-21T08:21:49.653Z,85472.00
2019-04-21T08:23:43.487Z,84384.00
2019-04-21T08:24:49.169Z,87552.00
2019-04-21T08:25:53.057Z,90912.00
2019-04-21T08:26:51.801Z,87904.00
2019-04-21T08:27:57.006Z,86432.00
2019-04-21T08:28:49.377Z,86080.00
2019-04-21T08:29:47.588Z,85504.00
2019-04-21T08:30:42.511Z,82432.00
2019-04-21T08:34:57.352Z,86368.00
2019-04-21T08:36:04.804Z,84576.00
2019-04-21T08:36:44.965Z,82784.00
2019-04-21T08:37:43.352Z,84768.00
2019-04-21T08:38:48.410Z,88736.00
2019-04-21T08:39:56.786Z,88960.00
2019-04-21T08:40:40.835Z,87776.00
2019-04-21T08:41:46.426Z,87808.00
2019-04-21T08:42:47.751Z,88224.00
2019-04-21T08:43:46.861Z,90560.00
2019-04-21T08:44:47.887Z,88480.00
2019-04-21T08:45:49.346Z,86400.00
2019-04-21T08:46:49.106Z,87552.00
2019-04-21T08:47:45.787Z,88928.00
2019-04-21T08:48:45.954Z,90464.00
2019-04-21T08:49:49.981Z,93792.00
2019-04-21T08:50:44.677Z,92064.00
2019-04-21T08:51:49.696Z,84704.00
2019-04-21T08:52:49.199Z,82208.00
2019-04-21T08:53:49.045Z,78688.00
2019-04-21T08:54:48.349Z,80768.00
2019-04-21T08:55:53.460Z,78848.00
2019-04-21T08:56:49.686Z,84512.00
2019-04-21T08:57:53.771Z,89088.00
2019-04-21T08:58:52.271Z,91584.00
2019-04-21T08:59:47.052Z,89440.00
2019-04-21T09:00:47.349Z,92544.00
2019-04-21T09:01:53.349Z,93216.00
2019-04-21T09:02:48.655Z,91008.00
2019-04-21T09:03:44.842Z,91200.00
2019-04-21T09:04:46.569Z,85344.00
2019-04-21T09:05:42.433Z,84672.00
2019-04-21T09:07:04.603Z,86944.00
2019-04-21T09:07:47.588Z,87936.00
2019-04-21T09:08:45.765Z,89312.00
2019-04-21T09:09:47.662Z,90656.00
2019-04-21T09:11:49.864Z,95648.00
2019-04-21T09:12:41.793Z,87264.00
2019-04-21T09:13:41.140Z,76064.00
2019-04-21T09:14:41.842Z,71840.00
2019-04-21T09:15:42.947Z,73248.00
2019-04-21T09:16:41.070Z,85344.00
2019-04-21T09:17:36.743Z,91776.00
2019-04-21T09:18:42.100Z,94112.00
2019-04-21T09:19:50.996Z,86432.00
2019-04-21T09:20:46.113Z,83456.00
2019-04-21T09:22:42.744Z,86240.00
2019-04-21T09:24:45.717Z,93984.00
2019-04-21T09:25:46.767Z,96768.00
2019-04-21T09:26:43.179Z,98176.00
2019-04-21T09:27:41.944Z,96192.00
2019-04-21T09:28:39.493Z,100768.00
2019-04-21T09:29:35.827Z,97248.00
2019-04-21T09:30:26.348Z,94464.00
2019-04-21T09:31:31.964Z,94592.00
2019-04-21T09:32:29.400Z,95104.00
2019-04-21T09:33:34.499Z,98880.00
2019-04-21T09:34:33.982Z,102496.00
2019-04-21T09:35:26.957Z,103552.00
2019-04-21T09:36:33.700Z,101792.00
2019-04-21T09:37:37.952Z,104416.00
2019-04-21T09:38:33.898Z,100000.00
2019-04-21T09:39:29.184Z,102816.00
2019-04-21T09:40:30.133Z,104256.00
2019-04-21T09:41:27.688Z,104192.00
2019-04-21T09:42:33.260Z,97344.00
2019-04-21T09:43:34.078Z,94144.00
2019-04-21T09:44:31.509Z,96448.00
2019-04-21T09:45:26.435Z,100800.00
2019-04-21T09:46:25.480Z,104416.00
2019-04-21T09:47:33.987Z,103200.00
2019-04-21T09:48:26.632Z,103616.00
2019-04-21T09:49:27.904Z,102080.00
2019-04-21T09:50:26.568Z,102784.00
2019-04-21T09:51:25.608Z,105024.00
2019-04-21T09:52:30.989Z,110944.00
2019-04-21T09:53:33.013Z,107872.00
2019-04-21T09:54:29.863Z,102368.00
2019-04-21T09:55:32.068Z,101376.00
2019-04-21T09:56:34.420Z,101152.00
2019-04-21T09:57:36.643Z,102272.00
2019-04-21T09:58:32.799Z,102624.00
2019-04-21T09:59:29.952Z,103424.00
2019-04-21T10:00:29.305Z,100480.00
2019-04-21T10:01:29.885Z,104992.00
2019-04-21T10:02:35.635Z,108288.00
2019-04-21T10:03:26.343Z,110752.00
2019-04-21T10:04:24.286Z,105632.00
2019-04-21T10:05:25.165Z,106784.00
2019-04-21T10:06:24.349Z,108320.00
2019-04-21T10:07:31.826Z,110336.00
2019-04-21T10:08:25.390Z,110624.00
2019-04-21T10:09:24.391Z,107040.00
2019-04-21T10:10:25.265Z,110432.00
2019-04-21T10:11:24.555Z,112128.00
2019-04-21T10:12:25.543Z,108192.00
2019-04-21T10:13:25.263Z,109664.00
2019-04-21T10:14:24.426Z,105792.00
2019-04-21T10:15:26.291Z,111200.00
2019-04-21T10:16:24.207Z,108384.00
2019-04-21T10:17:24.170Z,107456.00
2019-04-21T10:18:25.121Z,106016.00
2019-04-21T10:19:25.370Z,101088.00
2019-04-21T10:20:24.526Z,102688.00
2019-04-21T10:21:26.057Z,101472.00
2019-04-21T10:22:24.163Z,102816.00
2019-04-21T10:23:25.374Z,103840.00
2019-04-21T10:24:24.534Z,100064.00
2019-04-21T10:25:25.048Z,93184.00
2019-04-21T10:26:24.425Z,88800.00
2019-04-21T10:27:25.270Z,93920.00
2019-04-21T10:28:25.120Z,98336.00
2019-04-21T10:29:26.459Z,99264.00
2019-04-21T10:30:25.035Z,98688.00
2019-04-21T10:31:24.937Z,98720.00
2019-04-21T10:32:25.403Z,100992.00
2019-04-21T10:33:24.204Z,107232.00
2019-04-21T10:34:25.210Z,106336.00
2019-04-21T10:35:25.018Z,102016.00
2019-04-21T10:36:24.874Z,100448.00
2019-04-21T10:37:36.589Z,97728.00
2019-04-21T10:38:33.244Z,98560.00
2019-04-21T10:39:25.019Z,104896.00
2019-04-21T10:40:25.379Z,108160.00
2019-04-21T10:41:23.967Z,104768.00
2019-04-21T10:42:23.935Z,106240.00
2019-04-21T10:43:25.423Z,101216.00
2019-04-21T10:44:25.251Z,104000.00
2019-04-21T10:45:25.124Z,107520.00
2019-04-21T10:46:24.739Z,107296.00
2019-04-21T10:47:24.793Z,109632.00
2019-04-21T10:48:25.177Z,108640.00
2019-04-21T10:49:24.485Z,105472.00
2019-04-21T10:50:24.567Z,110368.00
2019-04-21T10:51:25.293Z,109952.00
2019-04-21T10:52:25.037Z,110944.00
2019-04-21T10:53:24.925Z,103040.00
2019-04-21T10:54:24.124Z,98912.00
2019-04-21T10:55:40.499Z,93376.00
2019-04-21T10:56:32.620Z,97984.00
2019-04-21T10:57:24.847Z,99904.00
2019-04-21T10:58:24.590Z,107392.00
2019-04-21T10:59:24.986Z,106304.00
2019-04-21T11:00:24.080Z,109056.00
2019-04-21T11:01:25.042Z,109248.00
2019-04-21T11:02:25.081Z,106944.00
2019-04-21T11:03:24.837Z,106976.00
2019-04-21T11:04:29.652Z,107040.00
2019-04-21T11:05:24.941Z,106240.00
2019-04-21T11:06:24.451Z,108416.00
2019-04-21T11:07:29.670Z,106816.00
2019-04-21T11:08:30.668Z,109344.00
2019-04-21T11:09:24.695Z,106304.00
2019-04-21T11:10:23.682Z,104992.00
2019-04-21T11:11:23.925Z,101088.00
2019-04-21T11:12:24.017Z,98464.00
2019-04-21T11:13:23.664Z,95264.00
2019-04-21T11:14:23.657Z,98688.00
2019-04-21T11:15:23.705Z,98496.00
2019-04-21T11:16:23.630Z,98848.00
2019-04-21T11:17:23.970Z,104832.00
2019-04-21T11:18:24.064Z,106912.00
2019-04-21T11:19:24.250Z,113088.00
2019-04-21T11:20:24.701Z,114848.00
2019-04-21T11:21:24.813Z,109216.00
2019-04-21T11:22:25.080Z,103904.00
2019-04-21T11:23:24.955Z,97344.00
2019-04-21T11:24:24.932Z,96192.00
2019-04-21T11:25:24.324Z,96480.00
2019-04-21T11:26:24.334Z,102144.00
2019-04-21T11:27:24.673Z,100608.00
2019-04-21T11:28:24.765Z,103328.00
2019-04-21T11:29:23.532Z,100288.00
2019-04-21T11:30:23.531Z,100640.00
2019-04-21T11:31:24.935Z,100768.00
2019-04-21T11:32:23.501Z,99840.00
2019-04-21T11:33:24.890Z,105312.00
2019-04-21T11:34:23.471Z,108128.00
2019-04-21T11:35:23.505Z,107904.00
2019-04-21T11:36:23.480Z,109792.00
2019-04-21T11:37:24.121Z,106464.00
2019-04-21T11:38:26.955Z,107392.00
2019-04-21T11:39:35.283Z,106336.00
2019-04-21T11:40:25.445Z,110080.00
2019-04-21T11:41:23.868Z,110336.00
2019-04-21T11:42:23.794Z,106976.00
2019-04-21T11:43:24.037Z,110144.00
2019-04-21T11:44:24.780Z,101664.00
2019-04-21T11:45:24.354Z,101984.00
2019-04-21T11:46:24.496Z,98944.00
2019-04-21T11:47:24.529Z,100032.00
2019-04-21T11:48:24.215Z,104096.00
2019-04-21T11:49:24.274Z,104256.00
2019-04-21T11:50:23.373Z,102624.00
2019-04-21T11:51:23.323Z,104192.00
2019-04-21T11:52:23.328Z,105024.00
2019-04-21T11:53:23.305Z,101760.00
2019-04-21T11:54:24.614Z,98208.00
2019-04-21T11:55:29.524Z,98880.00
2019-04-21T11:56:25.094Z,102784.00
2019-04-21T11:57:27.995Z,105632.00
2019-04-21T11:58:26.006Z,108000.00
2019-04-21T11:59:23.876Z,104128.00
2019-04-21T12:00:23.977Z,106240.00
2019-04-21T12:01:23.515Z,108416.00
2019-04-21T12:02:23.548Z,107488.00
2019-04-21T12:03:23.980Z,103456.00
2019-04-21T12:04:23.507Z,97120.00
2019-04-21T12:05:23.610Z,96096.00
2019-04-21T12:06:31.753Z,97088.00
2019-04-21T12:07:25.137Z,101152.00
2019-04-21T12:08:32.423Z,106144.00
2019-04-21T12:09:25.098Z,110272.00
2019-04-21T12:10:23.777Z,107072.00
2019-04-21T12:11:23.284Z,103680.00
2019-04-21T12:12:23.343Z,102496.00
2019-04-21T12:13:24.440Z,104640.00
2019-04-21T12:14:23.825Z,99008.00
2019-04-21T12:15:23.347Z,96032.00
2019-04-21T12:16:23.384Z,97024.00
2019-04-21T12:17:23.723Z,98112.00
2019-04-21T12:18:26.344Z,100928.00
2019-04-21T12:19:25.028Z,98112.00
2019-04-21T12:20:24.332Z,96544.00
2019-04-21T12:21:23.422Z,100288.00
2019-04-21T12:22:28.131Z,103808.00
2019-04-21T12:23:24.683Z,103264.00
2019-04-21T12:24:23.030Z,97312.00
2019-04-21T12:25:23.059Z,94560.00
2019-04-21T12:26:24.184Z,91808.00
2019-04-21T12:27:23.043Z,95360.00
2019-04-21T12:28:23.872Z,95584.00
2019-04-21T12:29:23.053Z,99712.00
2019-04-21T12:30:24.073Z,97952.00
2019-04-21T12:31:23.453Z,100160.00
2019-04-21T12:32:24.093Z,101888.00
2019-04-21T12:33:24.282Z,100480.00
2019-04-21T12:34:23.758Z,99008.00
2019-04-21T12:35:23.882Z,96704.00
2019-04-21T12:36:24.083Z,94304.00
2019-04-21T12:37:22.929Z,93344.00
2019-04-21T12:38:32.116Z,100288.00
2019-04-21T12:39:25.072Z,100672.00
2019-04-21T12:40:24.231Z,98752.00
2019-04-21T12:41:22.934Z,92000.00
2019-04-21T12:42:22.996Z,93824.00
2019-04-21T12:43:23.143Z,93824.00
2019-04-21T12:44:22.873Z,93792.00
2019-04-21T12:45:24.025Z,96064.00
2019-04-21T12:46:22.889Z,93312.00
2019-04-21T12:47:23.859Z,90560.00
2019-04-21T12:48:24.057Z,90592.00
2019-04-21T12:49:22.814Z,91264.00
2019-04-21T12:50:23.575Z,90752.00
2019-04-21T12:51:23.950Z,92512.00
2019-04-21T12:52:23.898Z,93888.00
2019-04-21T12:53:23.558Z,93184.00
2019-04-21T12:54:23.810Z,93248.00
2019-04-21T12:55:26.151Z,90080.00
2019-04-21T12:56:23.828Z,88096.00
2019-04-21T12:57:23.445Z,88928.00
2019-04-21T12:58:23.646Z,88416.00
2019-04-21T12:59:22.744Z,92512.00
2019-04-21T13:00:22.866Z,93792.00
2019-04-21T13:01:23.157Z,94272.00
2019-04-21T13:02:22.767Z,94432.00
2019-04-21T13:03:24.778Z,93088.00
2019-04-21T13:04:23.849Z,94208.00
2019-04-21T13:05:22.684Z,92064.00
2019-04-21T13:06:23.484Z,88768.00
2019-04-21T13:07:23.579Z,86912.00
2019-04-21T13:08:22.658Z,85056.00
2019-04-21T13:09:24.131Z,87168.00
2019-04-21T13:10:24.213Z,86112.00